sensor_id;sensor_type;location;lat;lon;timestamp;P1;durP1;ratioP1;P2;durP2;ratioP2
25331;SDS011;13284;52.748;13.452;2023-02-28T00:00:17;8.13;;;5.90;;
25331;SDS011;13284;52.748;13.452;2023-02-28T00:02:44;6.20;;;5.17;;
25331;SDS011;13284;52.748;13.452;2023-02-28T00:05:11;9.83;;;7.10;;
25331;SDS011;13284;52.748;13.452;2023-02-28T00:07:38;7.30;;;5.13;;
25331;SDS011;13284;52.748;13.452;2023-02-28T00:10:05;8.57;;;4.57;;
25331;SDS011;13284;52.748;13.452;2023-02-28T00:12:33;6.67;;;4.43;;
25331;SDS011;13284;52.748;13.452;2023-02-28T00:14:59;5.10;;;4.37;;
25331;SDS011;13284;52.748;13.452;2023-02-28T00:17:24;7.20;;;4.77;;
25331;SDS011;13284;52.748;13.452;2023-02-28T00:19:50;5.80;;;4.17;;
25331;SDS011;13284;52.748;13.452;2023-02-28T00:22:17;5.47;;;3.33;;
25331;SDS011;13284;52.748;13.452;2023-02-28T00:24:44;8.83;;;3.83;;
25331;SDS011;13284;52.748;13.452;2023-02-28T00:27:10;6.60;;;3.87;;
25331;SDS011;13284;52.748;13.452;2023-02-28T00:29:36;6.60;;;3.37;;
25331;SDS011;13284;52.748;13.452;2023-02-28T00:32:02;7.70;;;4.10;;
25331;SDS011;13284;52.748;13.452;2023-02-28T00:34:27;5.80;;;3.40;;
25331;SDS011;13284;52.748;13.452;2023-02-28T00:36:54;4.50;;;3.30;;
25331;SDS011;13284;52.748;13.452;2023-02-28T00:39:19;4.63;;;3.07;;
25331;SDS011;13284;52.748;13.452;2023-02-28T00:41:45;5.10;;;2.77;;
25331;SDS011;13284;52.748;13.452;2023-02-28T00:44:10;3.70;;;3.23;;
25331;SDS011;13284;52.748;13.452;2023-02-28T00:46:36;3.57;;;2.63;;
25331;SDS011;13284;52.748;13.452;2023-02-28T00:49:01;6.00;;;2.90;;
25331;SDS011;13284;52.748;13.452;2023-02-28T00:51:27;3.23;;;2.70;;
25331;SDS011;13284;52.748;13.452;2023-02-28T00:53:52;7.20;;;3.03;;
25331;SDS011;13284;52.748;13.452;2023-02-28T00:56:18;5.07;;;2.90;;
25331;SDS011;13284;52.748;13.452;2023-02-28T00:58:44;3.20;;;2.60;;
25331;SDS011;13284;52.748;13.452;2023-02-28T01:01:09;2.33;;;2.13;;
25331;SDS011;13284;52.748;13.452;2023-02-28T01:03:35;3.00;;;2.20;;
25331;SDS011;13284;52.748;13.452;2023-02-28T01:06:00;3.00;;;2.10;;
25331;SDS011;13284;52.748;13.452;2023-02-28T01:08:26;2.90;;;2.00;;
25331;SDS011;13284;52.748;13.452;2023-02-28T01:10:52;3.30;;;2.27;;
25331;SDS011;13284;52.748;13.452;2023-02-28T01:13:18;11.53;;;2.50;;
25331;SDS011;13284;52.748;13.452;2023-02-28T01:15:51;2.60;;;2.17;;
25331;SDS011;13284;52.748;13.452;2023-02-28T01:18:19;4.40;;;2.13;;
25331;SDS011;13284;52.748;13.452;2023-02-28T01:20:46;3.63;;;1.97;;
25331;SDS011;13284;52.748;13.452;2023-02-28T01:23:18;11.10;;;2.30;;
25331;SDS011;13284;52.748;13.452;2023-02-28T01:25:45;3.90;;;3.50;;
25331;SDS011;13284;52.748;13.452;2023-02-28T01:28:10;3.67;;;2.67;;
25331;SDS011;13284;52.748;13.452;2023-02-28T01:30:39;3.10;;;2.20;;
25331;SDS011;13284;52.748;13.452;2023-02-28T01:33:04;2.20;;;1.70;;
25331;SDS011;13284;52.748;13.452;2023-02-28T01:35:33;3.13;;;2.00;;
25331;SDS011;13284;52.748;13.452;2023-02-28T01:38:00;2.30;;;1.60;;
25331;SDS011;13284;52.748;13.452;2023-02-28T01:40:26;2.40;;;2.20;;
25331;SDS011;13284;52.748;13.452;2023-02-28T01:42:51;4.57;;;2.70;;
25331;SDS011;13284;52.748;13.452;2023-02-28T01:47:56;4.10;;;2.33;;
25331;SDS011;13284;52.748;13.452;2023-02-28T01:50:27;7.50;;;2.23;;
25331;SDS011;13284;52.748;13.452;2023-02-28T01:52:56;3.30;;;2.03;;
25331;SDS011;13284;52.748;13.452;2023-02-28T01:55:26;2.40;;;2.20;;
25331;SDS011;13284;52.748;13.452;2023-02-28T01:57:54;3.07;;;2.60;;
25331;SDS011;13284;52.748;13.452;2023-02-28T02:00:23;4.00;;;2.33;;
25331;SDS011;13284;52.748;13.452;2023-02-28T02:02:53;2.57;;;1.80;;
25331;SDS011;13284;52.748;13.452;2023-02-28T02:05:23;3.03;;;2.00;;
25331;SDS011;13284;52.748;13.452;2023-02-28T02:07:52;4.43;;;2.33;;
25331;SDS011;13284;52.748;13.452;2023-02-28T02:10:21;2.90;;;1.70;;
25331;SDS011;13284;52.748;13.452;2023-02-28T02:15:40;2.50;;;2.30;;
25331;SDS011;13284;52.748;13.452;2023-02-28T02:23:55;2.83;;;2.50;;
25331;SDS011;13284;52.748;13.452;2023-02-28T02:32:35;1.63;;;1.53;;
25331;SDS011;13284;52.748;13.452;2023-02-28T02:35:29;6.03;;;1.93;;
25331;SDS011;13284;52.748;13.452;2023-02-28T02:38:09;1.90;;;1.80;;
25331;SDS011;13284;52.748;13.452;2023-02-28T02:41:04;3.93;;;2.40;;
25331;SDS011;13284;52.748;13.452;2023-02-28T02:46:14;2.10;;;1.27;;
25331;SDS011;13284;52.748;13.452;2023-02-28T02:48:43;4.20;;;1.70;;
25331;SDS011;13284;52.748;13.452;2023-02-28T02:51:12;3.10;;;1.57;;
25331;SDS011;13284;52.748;13.452;2023-02-28T02:53:49;1.60;;;1.50;;
25331;SDS011;13284;52.748;13.452;2023-02-28T02:56:19;1.43;;;1.33;;
25331;SDS011;13284;52.748;13.452;2023-02-28T02:58:50;1.80;;;1.27;;
25331;SDS011;13284;52.748;13.452;2023-02-28T03:01:19;4.63;;;1.73;;
25331;SDS011;13284;52.748;13.452;2023-02-28T03:04:02;1.67;;;1.57;;
25331;SDS011;13284;52.748;13.452;2023-02-28T03:06:32;2.40;;;1.40;;
25331;SDS011;13284;52.748;13.452;2023-02-28T03:08:57;7.40;;;2.30;;
25331;SDS011;13284;52.748;13.452;2023-02-28T03:11:24;2.30;;;1.80;;
25331;SDS011;13284;52.748;13.452;2023-02-28T03:16:49;2.60;;;1.77;;
25331;SDS011;13284;52.748;13.452;2023-02-28T03:22:14;2.00;;;1.00;;
25331;SDS011;13284;52.748;13.452;2023-02-28T03:24:49;1.53;;;1.43;;
25331;SDS011;13284;52.748;13.452;2023-02-28T03:27:24;1.57;;;1.30;;
25331;SDS011;13284;52.748;13.452;2023-02-28T03:30:03;2.13;;;1.53;;
25331;SDS011;13284;52.748;13.452;2023-02-28T03:32:33;2.30;;;2.13;;
25331;SDS011;13284;52.748;13.452;2023-02-28T03:35:06;1.97;;;1.67;;
25331;SDS011;13284;52.748;13.452;2023-02-28T03:37:39;1.73;;;1.60;;
25331;SDS011;13284;52.748;13.452;2023-02-28T03:40:15;2.03;;;1.50;;
25331;SDS011;13284;52.748;13.452;2023-02-28T03:42:45;1.63;;;1.50;;
25331;SDS011;13284;52.748;13.452;2023-02-28T03:45:18;1.93;;;1.73;;
25331;SDS011;13284;52.748;13.452;2023-02-28T03:47:58;3.40;;;1.70;;
25331;SDS011;13284;52.748;13.452;2023-02-28T03:53:23;1.70;;;1.60;;
25331;SDS011;13284;52.748;13.452;2023-02-28T03:56:01;3.60;;;1.90;;
25331;SDS011;13284;52.748;13.452;2023-02-28T03:58:36;1.87;;;1.77;;
25331;SDS011;13284;52.748;13.452;2023-02-28T04:01:21;3.03;;;1.70;;
25331;SDS011;13284;52.748;13.452;2023-02-28T04:03:52;3.53;;;2.10;;
25331;SDS011;13284;52.748;13.452;2023-02-28T04:06:19;2.57;;;2.10;;
25331;SDS011;13284;52.748;13.452;2023-02-28T04:08:46;5.50;;;3.10;;
25331;SDS011;13284;52.748;13.452;2023-02-28T04:14:11;2.90;;;2.00;;
25331;SDS011;13284;52.748;13.452;2023-02-28T04:16:38;2.73;;;1.87;;
25331;SDS011;13284;52.748;13.452;2023-02-28T04:19:06;2.27;;;2.00;;
25331;SDS011;13284;52.748;13.452;2023-02-28T04:21:34;2.73;;;2.53;;
25331;SDS011;13284;52.748;13.452;2023-02-28T04:24:02;3.37;;;1.50;;
25331;SDS011;13284;52.748;13.452;2023-02-28T04:26:28;1.70;;;1.60;;
25331;SDS011;13284;52.748;13.452;2023-02-28T04:28:58;2.10;;;1.80;;
25331;SDS011;13284;52.748;13.452;2023-02-28T04:31:24;1.13;;;0.80;;
25331;SDS011;13284;52.748;13.452;2023-02-28T04:33:50;2.00;;;1.40;;
25331;SDS011;13284;52.748;13.452;2023-02-28T04:36:16;1.70;;;1.60;;
25331;SDS011;13284;52.748;13.452;2023-02-28T04:38:43;2.77;;;1.93;;
25331;SDS011;13284;52.748;13.452;2023-02-28T04:41:09;1.73;;;1.37;;
25331;SDS011;13284;52.748;13.452;2023-02-28T04:43:35;2.00;;;1.60;;
25331;SDS011;13284;52.748;13.452;2023-02-28T04:46:01;2.13;;;1.83;;
25331;SDS011;13284;52.748;13.452;2023-02-28T04:48:29;3.47;;;2.03;;
25331;SDS011;13284;52.748;13.452;2023-02-28T04:51:00;1.20;;;1.10;;
25331;SDS011;13284;52.748;13.452;2023-02-28T04:53:30;3.80;;;1.73;;
25331;SDS011;13284;52.748;13.452;2023-02-28T04:55:56;4.38;;;2.15;;
25331;SDS011;13284;52.748;13.452;2023-02-28T04:58:22;3.07;;;2.23;;
25331;SDS011;13284;52.748;13.452;2023-02-28T05:00:49;2.20;;;2.00;;
25331;SDS011;13284;52.748;13.452;2023-02-28T05:03:19;5.17;;;3.30;;
25331;SDS011;13284;52.748;13.452;2023-02-28T05:05:47;1.90;;;1.63;;
25331;SDS011;13284;52.748;13.452;2023-02-28T05:08:13;1.90;;;1.43;;
25331;SDS011;13284;52.748;13.452;2023-02-28T05:10:39;3.60;;;2.23;;
25331;SDS011;13284;52.748;13.452;2023-02-28T05:13:05;3.90;;;2.50;;
25331;SDS011;13284;52.748;13.452;2023-02-28T05:15:30;4.97;;;2.70;;
25331;SDS011;13284;52.748;13.452;2023-02-28T05:17:56;3.70;;;2.57;;
25331;SDS011;13284;52.748;13.452;2023-02-28T05:20:21;5.00;;;3.15;;
25331;SDS011;13284;52.748;13.452;2023-02-28T05:22:47;3.50;;;2.70;;
25331;SDS011;13284;52.748;13.452;2023-02-28T05:25:16;2.30;;;1.63;;
25331;SDS011;13284;52.748;13.452;2023-02-28T05:27:43;2.53;;;2.10;;
25331;SDS011;13284;52.748;13.452;2023-02-28T05:30:10;2.07;;;1.87;;
25331;SDS011;13284;52.748;13.452;2023-02-28T05:32:37;2.77;;;2.00;;
25331;SDS011;13284;52.748;13.452;2023-02-28T05:35:03;3.77;;;2.03;;
25331;SDS011;13284;52.748;13.452;2023-02-28T05:37:29;2.93;;;2.03;;
25331;SDS011;13284;52.748;13.452;2023-02-28T05:39:55;5.53;;;2.47;;
25331;SDS011;13284;52.748;13.452;2023-02-28T05:42:20;1.77;;;1.53;;
25331;SDS011;13284;52.748;13.452;2023-02-28T05:44:46;5.10;;;2.90;;
25331;SDS011;13284;52.748;13.452;2023-02-28T05:47:11;6.53;;;2.13;;
25331;SDS011;13284;52.748;13.452;2023-02-28T05:49:40;3.00;;;2.00;;
25331;SDS011;13284;52.748;13.452;2023-02-28T05:52:06;3.37;;;1.93;;
25331;SDS011;13284;52.748;13.452;2023-02-28T05:54:32;6.07;;;1.93;;
25331;SDS011;13284;52.748;13.452;2023-02-28T05:56:57;3.70;;;1.70;;
25331;SDS011;13284;52.748;13.452;2023-02-28T05:59:23;2.20;;;1.47;;
25331;SDS011;13284;52.748;13.452;2023-02-28T06:01:48;1.73;;;1.60;;
25331;SDS011;13284;52.748;13.452;2023-02-28T06:04:15;2.70;;;1.97;;
25331;SDS011;13284;52.748;13.452;2023-02-28T06:06:44;3.90;;;2.17;;
25331;SDS011;13284;52.748;13.452;2023-02-28T06:09:10;1.80;;;1.70;;
25331;SDS011;13284;52.748;13.452;2023-02-28T06:11:36;3.47;;;2.40;;
25331;SDS011;13284;52.748;13.452;2023-02-28T06:14:04;3.00;;;1.80;;
25331;SDS011;13284;52.748;13.452;2023-02-28T06:16:30;2.07;;;1.70;;
25331;SDS011;13284;52.748;13.452;2023-02-28T06:18:58;4.27;;;2.47;;
25331;SDS011;13284;52.748;13.452;2023-02-28T06:21:25;2.87;;;2.20;;
25331;SDS011;13284;52.748;13.452;2023-02-28T06:23:52;6.17;;;2.40;;
25331;SDS011;13284;52.748;13.452;2023-02-28T06:26:20;4.80;;;2.77;;
25331;SDS011;13284;52.748;13.452;2023-02-28T06:28:46;3.70;;;3.17;;
25331;SDS011;13284;52.748;13.452;2023-02-28T06:31:21;3.30;;;2.50;;
25331;SDS011;13284;52.748;13.452;2023-02-28T06:33:47;3.13;;;2.33;;
25331;SDS011;13284;52.748;13.452;2023-02-28T06:36:14;2.80;;;2.40;;
25331;SDS011;13284;52.748;13.452;2023-02-28T06:38:43;4.00;;;2.53;;
25331;SDS011;13284;52.748;13.452;2023-02-28T06:41:09;3.67;;;1.90;;
25331;SDS011;13284;52.748;13.452;2023-02-28T06:43:36;2.70;;;2.23;;
25331;SDS011;13284;52.748;13.452;2023-02-28T06:46:04;2.47;;;2.27;;
25331;SDS011;13284;52.748;13.452;2023-02-28T06:48:31;2.77;;;2.20;;
25331;SDS011;13284;52.748;13.452;2023-02-28T06:51:11;3.60;;;2.77;;
25331;SDS011;13284;52.748;13.452;2023-02-28T06:53:39;7.20;;;3.17;;
25331;SDS011;13284;52.748;13.452;2023-02-28T06:56:06;2.93;;;2.07;;
25331;SDS011;13284;52.748;13.452;2023-02-28T06:58:33;4.30;;;1.80;;
25331;SDS011;13284;52.748;13.452;2023-02-28T07:00:59;5.43;;;2.40;;
25331;SDS011;13284;52.748;13.452;2023-02-28T07:03:25;5.33;;;2.03;;
25331;SDS011;13284;52.748;13.452;2023-02-28T07:05:53;3.13;;;2.23;;
25331;SDS011;13284;52.748;13.452;2023-02-28T07:08:21;3.00;;;2.40;;
25331;SDS011;13284;52.748;13.452;2023-02-28T07:10:47;10.57;;;8.07;;
25331;SDS011;13284;52.748;13.452;2023-02-28T07:13:17;13.30;;;8.57;;
25331;SDS011;13284;52.748;13.452;2023-02-28T07:15:42;4.10;;;2.97;;
25331;SDS011;13284;52.748;13.452;2023-02-28T07:18:10;3.23;;;2.43;;
25331;SDS011;13284;52.748;13.452;2023-02-28T07:20:35;5.60;;;2.80;;
25331;SDS011;13284;52.748;13.452;2023-02-28T07:23:01;4.37;;;2.83;;
25331;SDS011;13284;52.748;13.452;2023-02-28T07:25:27;4.47;;;2.80;;
25331;SDS011;13284;52.748;13.452;2023-02-28T07:27:56;4.07;;;2.43;;
25331;SDS011;13284;52.748;13.452;2023-02-28T07:30:21;3.23;;;2.90;;
25331;SDS011;13284;52.748;13.452;2023-02-28T07:32:47;3.33;;;2.77;;
25331;SDS011;13284;52.748;13.452;2023-02-28T07:35:15;4.00;;;2.90;;
25331;SDS011;13284;52.748;13.452;2023-02-28T07:37:43;5.57;;;3.47;;
25331;SDS011;13284;52.748;13.452;2023-02-28T07:40:09;3.30;;;2.70;;
25331;SDS011;13284;52.748;13.452;2023-02-28T07:42:39;7.80;;;3.50;;
25331;SDS011;13284;52.748;13.452;2023-02-28T07:45:06;6.23;;;3.60;;
25331;SDS011;13284;52.748;13.452;2023-02-28T07:47:35;6.40;;;3.50;;
25331;SDS011;13284;52.748;13.452;2023-02-28T07:50:04;6.03;;;3.27;;
25331;SDS011;13284;52.748;13.452;2023-02-28T07:52:31;3.40;;;3.20;;
25331;SDS011;13284;52.748;13.452;2023-02-28T07:54:57;4.50;;;3.50;;
25331;SDS011;13284;52.748;13.452;2023-02-28T07:57:22;4.07;;;3.73;;
25331;SDS011;13284;52.748;13.452;2023-02-28T07:59:48;7.00;;;3.50;;
25331;SDS011;13284;52.748;13.452;2023-02-28T08:02:14;6.57;;;4.23;;
25331;SDS011;13284;52.748;13.452;2023-02-28T08:04:40;9.50;;;4.60;;
25331;SDS011;13284;52.748;13.452;2023-02-28T08:07:06;6.77;;;5.20;;
25331;SDS011;13284;52.748;13.452;2023-02-28T08:09:32;5.00;;;3.80;;
25331;SDS011;13284;52.748;13.452;2023-02-28T08:11:59;7.10;;;4.90;;
25331;SDS011;13284;52.748;13.452;2023-02-28T08:14:24;7.10;;;4.60;;
25331;SDS011;13284;52.748;13.452;2023-02-28T08:16:50;8.87;;;5.23;;
25331;SDS011;13284;52.748;13.452;2023-02-28T08:19:15;5.60;;;4.60;;
25331;SDS011;13284;52.748;13.452;2023-02-28T08:21:41;9.10;;;6.20;;
25331;SDS011;13284;52.748;13.452;2023-02-28T08:24:06;9.77;;;5.20;;
25331;SDS011;13284;52.748;13.452;2023-02-28T08:26:32;6.63;;;4.57;;
25331;SDS011;13284;52.748;13.452;2023-02-28T08:28:58;8.87;;;4.87;;
25331;SDS011;13284;52.748;13.452;2023-02-28T08:31:24;5.97;;;4.20;;
25331;SDS011;13284;52.748;13.452;2023-02-28T08:33:49;7.87;;;5.00;;
25331;SDS011;13284;52.748;13.452;2023-02-28T08:36:16;8.23;;;4.60;;
25331;SDS011;13284;52.748;13.452;2023-02-28T08:38:42;6.90;;;4.90;;
25331;SDS011;13284;52.748;13.452;2023-02-28T08:41:09;6.57;;;5.17;;
25331;SDS011;13284;52.748;13.452;2023-02-28T08:43:36;9.20;;;6.00;;
25331;SDS011;13284;52.748;13.452;2023-02-28T08:46:02;6.27;;;4.83;;
25331;SDS011;13284;52.748;13.452;2023-02-28T08:48:29;8.87;;;5.47;;
25331;SDS011;13284;52.748;13.452;2023-02-28T08:53:34;9.50;;;6.13;;
25331;SDS011;13284;52.748;13.452;2023-02-28T08:56:04;7.67;;;4.97;;
25331;SDS011;13284;52.748;13.452;2023-02-28T08:58:30;7.47;;;4.10;;
25331;SDS011;13284;52.748;13.452;2023-02-28T09:00:56;9.03;;;5.50;;
25331;SDS011;13284;52.748;13.452;2023-02-28T09:03:22;7.43;;;4.63;;
25331;SDS011;13284;52.748;13.452;2023-02-28T09:05:58;4.20;;;3.80;;
25331;SDS011;13284;52.748;13.452;2023-02-28T09:08:26;6.33;;;3.37;;
25331;SDS011;13284;52.748;13.452;2023-02-28T09:10:53;6.67;;;3.80;;
25331;SDS011;13284;52.748;13.452;2023-02-28T09:13:19;5.90;;;3.90;;
25331;SDS011;13284;52.748;13.452;2023-02-28T09:15:45;2.53;;;2.23;;
25331;SDS011;13284;52.748;13.452;2023-02-28T09:18:11;4.37;;;2.77;;
25331;SDS011;13284;52.748;13.452;2023-02-28T09:20:39;3.70;;;2.73;;
25331;SDS011;13284;52.748;13.452;2023-02-28T09:23:06;5.10;;;2.90;;
25331;SDS011;13284;52.748;13.452;2023-02-28T09:25:33;4.50;;;2.50;;
25331;SDS011;13284;52.748;13.452;2023-02-28T09:28:00;4.57;;;1.90;;
25331;SDS011;13284;52.748;13.452;2023-02-28T09:30:26;3.27;;;2.20;;
25331;SDS011;13284;52.748;13.452;2023-02-28T09:32:51;2.63;;;1.63;;
25331;SDS011;13284;52.748;13.452;2023-02-28T09:35:18;2.13;;;1.60;;
25331;SDS011;13284;52.748;13.452;2023-02-28T09:37:45;4.10;;;2.80;;
25331;SDS011;13284;52.748;13.452;2023-02-28T09:40:12;3.47;;;3.00;;
25331;SDS011;13284;52.748;13.452;2023-02-28T09:42:39;3.30;;;3.00;;
25331;SDS011;13284;52.748;13.452;2023-02-28T09:45:07;3.57;;;2.40;;
25331;SDS011;13284;52.748;13.452;2023-02-28T09:47:58;2.87;;;2.50;;
25331;SDS011;13284;52.748;13.452;2023-02-28T09:50:33;3.83;;;2.10;;
25331;SDS011;13284;52.748;13.452;2023-02-28T09:53:12;1.73;;;1.63;;
25331;SDS011;13284;52.748;13.452;2023-02-28T09:55:55;6.03;;;1.93;;
25331;SDS011;13284;52.748;13.452;2023-02-28T10:01:25;2.10;;;1.53;;
25331;SDS011;13284;52.748;13.452;2023-02-28T10:03:59;2.23;;;2.00;;
25331;SDS011;13284;52.748;13.452;2023-02-28T10:06:34;3.53;;;2.20;;
25331;SDS011;13284;52.748;13.452;2023-02-28T10:09:25;1.50;;;1.37;;
25331;SDS011;13284;52.748;13.452;2023-02-28T10:11:56;2.97;;;2.30;;
25331;SDS011;13284;52.748;13.452;2023-02-28T10:14:28;2.13;;;1.90;;
25331;SDS011;13284;52.748;13.452;2023-02-28T10:16:58;2.20;;;1.73;;
25331;SDS011;13284;52.748;13.452;2023-02-28T10:19:29;2.00;;;1.77;;
25331;SDS011;13284;52.748;13.452;2023-02-28T10:24:48;4.20;;;1.93;;
25331;SDS011;13284;52.748;13.452;2023-02-28T10:27:19;2.57;;;1.77;;
25331;SDS011;13284;52.748;13.452;2023-02-28T10:29:50;3.60;;;2.00;;
25331;SDS011;13284;52.748;13.452;2023-02-28T10:32:18;2.87;;;2.23;;
25331;SDS011;13284;52.748;13.452;2023-02-28T10:34:51;5.20;;;2.60;;
25331;SDS011;13284;52.748;13.452;2023-02-28T10:37:20;3.03;;;2.03;;
25331;SDS011;13284;52.748;13.452;2023-02-28T10:39:46;2.00;;;1.73;;
25331;SDS011;13284;52.748;13.452;2023-02-28T10:42:25;3.20;;;2.90;;
25331;SDS011;13284;52.748;13.452;2023-02-28T10:55:35;2.23;;;1.10;;
25331;SDS011;13284;52.748;13.452;2023-02-28T10:58:01;1.50;;;1.20;;
25331;SDS011;13284;52.748;13.452;2023-02-28T11:00:32;1.83;;;1.43;;
25331;SDS011;13284;52.748;13.452;2023-02-28T11:02:59;2.90;;;1.30;;
25331;SDS011;13284;52.748;13.452;2023-02-28T11:05:26;2.30;;;1.50;;
25331;SDS011;13284;52.748;13.452;2023-02-28T11:07:55;3.37;;;2.00;;
25331;SDS011;13284;52.748;13.452;2023-02-28T11:10:25;2.27;;;1.60;;
25331;SDS011;13284;52.748;13.452;2023-02-28T11:12:55;3.10;;;2.07;;
25331;SDS011;13284;52.748;13.452;2023-02-28T11:18:01;2.97;;;2.63;;
25331;SDS011;13284;52.748;13.452;2023-02-28T11:20:33;1.93;;;1.77;;
25331;SDS011;13284;52.748;13.452;2023-02-28T11:23:00;3.03;;;1.93;;
25331;SDS011;13284;52.748;13.452;2023-02-28T11:25:35;4.10;;;1.80;;
25331;SDS011;13284;52.748;13.452;2023-02-28T11:28:04;2.73;;;1.80;;
25331;SDS011;13284;52.748;13.452;2023-02-28T11:30:35;5.10;;;1.87;;
25331;SDS011;13284;52.748;13.452;2023-02-28T11:33:22;3.33;;;1.80;;
25331;SDS011;13284;52.748;13.452;2023-02-28T11:35:49;5.40;;;1.90;;
25331;SDS011;13284;52.748;13.452;2023-02-28T11:38:16;2.07;;;1.30;;
25331;SDS011;13284;52.748;13.452;2023-02-28T11:40:55;2.10;;;1.50;;
25331;SDS011;13284;52.748;13.452;2023-02-28T11:43:57;1.67;;;1.50;;
25331;SDS011;13284;52.748;13.452;2023-02-28T11:52:05;2.50;;;1.93;;
25331;SDS011;13284;52.748;13.452;2023-02-28T12:00:38;2.93;;;2.73;;
25331;SDS011;13284;52.748;13.452;2023-02-28T12:03:43;2.40;;;1.87;;
25331;SDS011;13284;52.748;13.452;2023-02-28T12:06:28;2.63;;;2.20;;
25331;SDS011;13284;52.748;13.452;2023-02-28T12:12:00;3.60;;;2.20;;
25331;SDS011;13284;52.748;13.452;2023-02-28T12:14:42;3.00;;;1.60;;
25331;SDS011;13284;52.748;13.452;2023-02-28T12:18:05;1.73;;;1.63;;
25331;SDS011;13284;52.748;13.452;2023-02-28T12:26:02;2.87;;;1.70;;
25331;SDS011;13284;52.748;13.452;2023-02-28T12:29:01;2.80;;;1.50;;
25331;SDS011;13284;52.748;13.452;2023-02-28T12:31:36;2.10;;;1.90;;
25331;SDS011;13284;52.748;13.452;2023-02-28T12:34:07;2.50;;;2.20;;
25331;SDS011;13284;52.748;13.452;2023-02-28T12:36:38;2.03;;;1.90;;
25331;SDS011;13284;52.748;13.452;2023-02-28T12:41:52;6.00;;;2.13;;
25331;SDS011;13284;52.748;13.452;2023-02-28T12:44:35;2.87;;;2.10;;
25331;SDS011;13284;52.748;13.452;2023-02-28T12:47:15;1.70;;;1.50;;
25331;SDS011;13284;52.748;13.452;2023-02-28T12:52:35;1.97;;;1.80;;
25331;SDS011;13284;52.748;13.452;2023-02-28T12:55:15;4.00;;;2.20;;
25331;SDS011;13284;52.748;13.452;2023-02-28T13:00:34;1.77;;;1.67;;
25331;SDS011;13284;52.748;13.452;2023-02-28T13:05:58;2.53;;;1.53;;
25331;SDS011;13284;52.748;13.452;2023-02-28T13:11:38;3.20;;;1.90;;
25331;SDS011;13284;52.748;13.452;2023-02-28T13:14:24;2.40;;;2.03;;
25331;SDS011;13284;52.748;13.452;2023-02-28T13:16:55;1.73;;;1.63;;
25331;SDS011;13284;52.748;13.452;2023-02-28T13:19:35;2.53;;;1.87;;
25331;SDS011;13284;52.748;13.452;2023-02-28T13:22:04;2.17;;;1.87;;
25331;SDS011;13284;52.748;13.452;2023-02-28T13:24:45;5.37;;;2.47;;
25331;SDS011;13284;52.748;13.452;2023-02-28T13:27:17;1.93;;;1.63;;
25331;SDS011;13284;52.748;13.452;2023-02-28T13:29:49;2.60;;;2.27;;
25331;SDS011;13284;52.748;13.452;2023-02-28T13:32:19;3.33;;;2.30;;
25331;SDS011;13284;52.748;13.452;2023-02-28T13:42:35;2.70;;;2.30;;
25331;SDS011;13284;52.748;13.452;2023-02-28T13:47:43;2.70;;;1.90;;
25331;SDS011;13284;52.748;13.452;2023-02-28T13:55:49;2.73;;;2.43;;
25331;SDS011;13284;52.748;13.452;2023-02-28T13:58:53;5.23;;;3.07;;
25331;SDS011;13284;52.748;13.452;2023-02-28T14:07:04;3.10;;;2.20;;
25331;SDS011;13284;52.748;13.452;2023-02-28T14:09:38;3.60;;;2.23;;
25331;SDS011;13284;52.748;13.452;2023-02-28T14:18:03;4.03;;;2.23;;
25331;SDS011;13284;52.748;13.452;2023-02-28T14:20:42;2.70;;;1.90;;
25331;SDS011;13284;52.748;13.452;2023-02-28T14:23:14;2.93;;;2.30;;
25331;SDS011;13284;52.748;13.452;2023-02-28T14:28:41;2.70;;;1.90;;
25331;SDS011;13284;52.748;13.452;2023-02-28T14:31:10;2.50;;;2.30;;
25331;SDS011;13284;52.748;13.452;2023-02-28T14:36:19;3.43;;;2.90;;
25331;SDS011;13284;52.748;13.452;2023-02-28T14:38:53;2.80;;;2.10;;
25331;SDS011;13284;52.748;13.452;2023-02-28T14:41:29;3.67;;;2.73;;
25331;SDS011;13284;52.748;13.452;2023-02-28T14:44:00;4.90;;;2.20;;
25331;SDS011;13284;52.748;13.452;2023-02-28T14:46:28;4.33;;;2.60;;
25331;SDS011;13284;52.748;13.452;2023-02-28T14:49:03;4.20;;;2.30;;
25331;SDS011;13284;52.748;13.452;2023-02-28T14:51:31;2.67;;;2.07;;
25331;SDS011;13284;52.748;13.452;2023-02-28T14:53:58;2.50;;;2.10;;
25331;SDS011;13284;52.748;13.452;2023-02-28T14:56:27;4.10;;;2.20;;
25331;SDS011;13284;52.748;13.452;2023-02-28T14:59:02;4.53;;;2.70;;
25331;SDS011;13284;52.748;13.452;2023-02-28T15:01:28;3.27;;;2.47;;
25331;SDS011;13284;52.748;13.452;2023-02-28T15:04:02;2.23;;;2.00;;
25331;SDS011;13284;52.748;13.452;2023-02-28T15:06:29;2.70;;;2.10;;
25331;SDS011;13284;52.748;13.452;2023-02-28T15:09:09;3.50;;;2.60;;
25331;SDS011;13284;52.748;13.452;2023-02-28T15:11:44;4.70;;;2.20;;
25331;SDS011;13284;52.748;13.452;2023-02-28T15:14:15;3.07;;;1.90;;
25331;SDS011;13284;52.748;13.452;2023-02-28T15:16:44;2.20;;;1.90;;
25331;SDS011;13284;52.748;13.452;2023-02-28T15:19:18;3.77;;;2.17;;
25331;SDS011;13284;52.748;13.452;2023-02-28T15:22:12;4.60;;;2.50;;
25331;SDS011;13284;52.748;13.452;2023-02-28T15:24:44;2.33;;;2.10;;
25331;SDS011;13284;52.748;13.452;2023-02-28T15:27:23;2.43;;;1.77;;
25331;SDS011;13284;52.748;13.452;2023-02-28T15:29:55;2.87;;;1.73;;
25331;SDS011;13284;52.748;13.452;2023-02-28T15:34:55;4.10;;;2.60;;
25331;SDS011;13284;52.748;13.452;2023-02-28T15:37:30;4.53;;;2.93;;
25331;SDS011;13284;52.748;13.452;2023-02-28T15:40:17;3.87;;;2.07;;
25331;SDS011;13284;52.748;13.452;2023-02-28T15:45:46;4.87;;;2.73;;
25331;SDS011;13284;52.748;13.452;2023-02-28T15:50:43;5.03;;;2.43;;
25331;SDS011;13284;52.748;13.452;2023-02-28T15:53:12;3.00;;;2.50;;
25331;SDS011;13284;52.748;13.452;2023-02-28T15:55:40;4.27;;;2.80;;
25331;SDS011;13284;52.748;13.452;2023-02-28T15:58:08;3.17;;;2.50;;
25331;SDS011;13284;52.748;13.452;2023-02-28T16:00:37;4.10;;;2.20;;
25331;SDS011;13284;52.748;13.452;2023-02-28T16:03:22;3.43;;;2.83;;
25331;SDS011;13284;52.748;13.452;2023-02-28T16:06:15;3.37;;;2.40;;
25331;SDS011;13284;52.748;13.452;2023-02-28T16:08:47;2.83;;;2.53;;
25331;SDS011;13284;52.748;13.452;2023-02-28T16:11:13;2.73;;;2.17;;
25331;SDS011;13284;52.748;13.452;2023-02-28T16:13:39;3.80;;;2.57;;
25331;SDS011;13284;52.748;13.452;2023-02-28T16:16:05;4.57;;;2.60;;
25331;SDS011;13284;52.748;13.452;2023-02-28T16:18:30;3.30;;;2.20;;
25331;SDS011;13284;52.748;13.452;2023-02-28T16:20:56;4.20;;;2.60;;
25331;SDS011;13284;52.748;13.452;2023-02-28T16:23:21;6.00;;;2.50;;
25331;SDS011;13284;52.748;13.452;2023-02-28T16:25:47;3.37;;;2.50;;
25331;SDS011;13284;52.748;13.452;2023-02-28T16:28:20;7.80;;;4.90;;
25331;SDS011;13284;52.748;13.452;2023-02-28T16:30:52;4.17;;;3.00;;
25331;SDS011;13284;52.748;13.452;2023-02-28T16:33:18;4.23;;;2.80;;
25331;SDS011;13284;52.748;13.452;2023-02-28T16:35:43;4.00;;;2.73;;
25331;SDS011;13284;52.748;13.452;2023-02-28T16:38:08;3.90;;;2.87;;
25331;SDS011;13284;52.748;13.452;2023-02-28T16:40:35;3.50;;;2.93;;
25331;SDS011;13284;52.748;13.452;2023-02-28T16:43:01;3.43;;;2.70;;
25331;SDS011;13284;52.748;13.452;2023-02-28T16:45:32;2.60;;;2.40;;
25331;SDS011;13284;52.748;13.452;2023-02-28T16:47:58;3.80;;;2.63;;
25331;SDS011;13284;52.748;13.452;2023-02-28T16:50:25;3.73;;;3.10;;
25331;SDS011;13284;52.748;13.452;2023-02-28T16:52:52;4.03;;;3.20;;
25331;SDS011;13284;52.748;13.452;2023-02-28T16:55:19;7.97;;;4.57;;
25331;SDS011;13284;52.748;13.452;2023-02-28T16:57:47;6.60;;;4.50;;